sensor_id;sensor_type;location;lat;lon;timestamp;P1;P2;P0
76420;PMS5003;65253;52.354;13.614;2024-03-08T00:00:00;25;22;
76420;PMS5003;65253;52.354;13.614;2024-03-08T00:04:00;35;23;
76420;PMS5003;65253;52.354;13.614;2024-03-08T00:08:00;36;26;
76420;PMS5003;65253;52.354;13.614;2024-03-08T00:12:00;31;29;
76420;PMS5003;65253;52.354;13.614;2024-03-08T00:16:00;36;26;
76420;PMS5003;65253;52.354;13.614;2024-03-08T00:20:00;35;26;
76420;PMS5003;65253;52.354;13.614;2024-03-08T00:24:00;40;24;
76420;PMS5003;65253;52.354;13.614;2024-03-08T00:28:00;39;29;
76420;PMS5003;65253;52.354;13.614;2024-03-08T00:32:00;29;23;
76420;PMS5003;65253;52.354;13.614;2024-03-08T00:36:00;25;21;
76420;PMS5003;65253;52.354;13.614;2024-03-08T00:40:00;32;20;
76420;PMS5003;65253;52.354;13.614;2024-03-08T00:44:00;21;16;
76420;PMS5003;65253;52.354;13.614;2024-03-08T00:48:00;26;23;
76420;PMS5003;65253;52.354;13.614;2024-03-08T00:52:00;25;21;
76420;PMS5003;65253;52.354;13.614;2024-03-08T00:56:00;30;20;
76420;PMS5003;65253;52.354;13.614;2024-03-08T01:00:02;25;18;
76420;PMS5003;65253;52.354;13.614;2024-03-08T01:04:00;30;21;
76420;PMS5003;65253;52.354;13.614;2024-03-08T01:08:00;27;24;
76420;PMS5003;65253;52.354;13.614;2024-03-08T01:12:01;40;25;
76420;PMS5003;65253;52.354;13.614;2024-03-08T01:16:00;32;22;
76420;PMS5003;65253;52.354;13.614;2024-03-08T01:20:00;29;20;
76420;PMS5003;65253;52.354;13.614;2024-03-08T01:24:00;29;20;
76420;PMS5003;65253;52.354;13.614;2024-03-08T01:28:00;29;22;
76420;PMS5003;65253;52.354;13.614;2024-03-08T01:32:00;31;21;
76420;PMS5003;65253;52.354;13.614;2024-03-08T01:36:00;33;21;
76420;PMS5003;65253;52.354;13.614;2024-03-08T01:40:01;31;21;
76420;PMS5003;65253;52.354;13.614;2024-03-08T01:44:01;27;23;
76420;PMS5003;65253;52.354;13.614;2024-03-08T01:48:01;27;20;
76420;PMS5003;65253;52.354;13.614;2024-03-08T01:52:00;26;19;
76420;PMS5003;65253;52.354;13.614;2024-03-08T01:56:00;27;20;
76420;PMS5003;65253;52.354;13.614;2024-03-08T02:00:00;29;23;
76420;PMS5003;65253;52.354;13.614;2024-03-08T02:04:00;33;24;
76420;PMS5003;65253;52.354;13.614;2024-03-08T02:08:00;28;18;
76420;PMS5003;65253;52.354;13.614;2024-03-08T02:12:00;39;27;
76420;PMS5003;65253;52.354;13.614;2024-03-08T02:16:00;27;21;
76420;PMS5003;65253;52.354;13.614;2024-03-08T02:20:01;46;25;
76420;PMS5003;65253;52.354;13.614;2024-03-08T02:24:00;25;20;
76420;PMS5003;65253;52.354;13.614;2024-03-08T02:28:00;29;18;
76420;PMS5003;65253;52.354;13.614;2024-03-08T02:32:00;36;23;
76420;PMS5003;65253;52.354;13.614;2024-03-08T02:36:00;28;17;
76420;PMS5003;65253;52.354;13.614;2024-03-08T02:40:00;27;18;
76420;PMS5003;65253;52.354;13.614;2024-03-08T02:44:00;34;25;
76420;PMS5003;65253;52.354;13.614;2024-03-08T02:48:00;32;21;
76420;PMS5003;65253;52.354;13.614;2024-03-08T02:52:00;27;20;
76420;PMS5003;65253;52.354;13.614;2024-03-08T02:56:00;37;23;
76420;PMS5003;65253;52.354;13.614;2024-03-08T03:00:00;28;23;
76420;PMS5003;65253;52.354;13.614;2024-03-08T03:04:00;30;23;
76420;PMS5003;65253;52.354;13.614;2024-03-08T03:08:00;28;20;
76420;PMS5003;65253;52.354;13.614;2024-03-08T03:12:00;31;24;
76420;PMS5003;65253;52.354;13.614;2024-03-08T03:16:00;31;27;
76420;PMS5003;65253;52.354;13.614;2024-03-08T03:20:00;29;20;
76420;PMS5003;65253;52.354;13.614;2024-03-08T03:24:00;34;25;
76420;PMS5003;65253;52.354;13.614;2024-03-08T03:28:00;29;22;
76420;PMS5003;65253;52.354;13.614;2024-03-08T03:32:00;32;20;
76420;PMS5003;65253;52.354;13.614;2024-03-08T03:36:00;32;24;
76420;PMS5003;65253;52.354;13.614;2024-03-08T03:40:00;36;24;
76420;PMS5003;65253;52.354;13.614;2024-03-08T03:44:00;33;26;
76420;PMS5003;65253;52.354;13.614;2024-03-08T03:48:01;31;25;
76420;PMS5003;65253;52.354;13.614;2024-03-08T03:52:00;32;25;
76420;PMS5003;65253;52.354;13.614;2024-03-08T03:56:00;33;23;
76420;PMS5003;65253;52.354;13.614;2024-03-08T04:00:00;41;28;
76420;PMS5003;65253;52.354;13.614;2024-03-08T04:04:00;29;20;
76420;PMS5003;65253;52.354;13.614;2024-03-08T04:08:00;29;23;
76420;PMS5003;65253;52.354;13.614;2024-03-08T04:12:00;40;29;
76420;PMS5003;65253;52.354;13.614;2024-03-08T04:16:00;36;22;
76420;PMS5003;65253;52.354;13.614;2024-03-08T04:20:00;34;21;
76420;PMS5003;65253;52.354;13.614;2024-03-08T04:24:00;36;24;
76420;PMS5003;65253;52.354;13.614;2024-03-08T04:28:00;37;27;
76420;PMS5003;65253;52.354;13.614;2024-03-08T04:32:02;40;27;
76420;PMS5003;65253;52.354;13.614;2024-03-08T04:36:00;25;20;
76420;PMS5003;65253;52.354;13.614;2024-03-08T04:40:01;45;31;
76420;PMS5003;65253;52.354;13.614;2024-03-08T04:44:00;28;22;
76420;PMS5003;65253;52.354;13.614;2024-03-08T04:48:00;32;26;
76420;PMS5003;65253;52.354;13.614;2024-03-08T04:52:01;39;28;
76420;PMS5003;65253;52.354;13.614;2024-03-08T04:56:00;32;26;
76420;PMS5003;65253;52.354;13.614;2024-03-08T05:00:01;32;24;
76420;PMS5003;65253;52.354;13.614;2024-03-08T05:04:06;31;26;
76420;PMS5003;65253;52.354;13.614;2024-03-08T05:08:00;39;27;
76420;PMS5003;65253;52.354;13.614;2024-03-08T05:12:00;36;26;
76420;PMS5003;65253;52.354;13.614;2024-03-08T05:16:00;36;25;
76420;PMS5003;65253;52.354;13.614;2024-03-08T05:20:00;35;28;
76420;PMS5003;65253;52.354;13.614;2024-03-08T05:24:00;41;27;
76420;PMS5003;65253;52.354;13.614;2024-03-08T05:28:00;30;25;
76420;PMS5003;65253;52.354;13.614;2024-03-08T05:32:00;36;24;
76420;PMS5003;65253;52.354;13.614;2024-03-08T05:36:00;38;27;
76420;PMS5003;65253;52.354;13.614;2024-03-08T05:40:00;30;23;
76420;PMS5003;65253;52.354;13.614;2024-03-08T05:44:00;40;26;
76420;PMS5003;65253;52.354;13.614;2024-03-08T05:48:00;26;24;
76420;PMS5003;65253;52.354;13.614;2024-03-08T05:52:00;32;26;
76420;PMS5003;65253;52.354;13.614;2024-03-08T05:56:00;40;28;
76420;PMS5003;65253;52.354;13.614;2024-03-08T06:00:00;33;24;
76420;PMS5003;65253;52.354;13.614;2024-03-08T06:04:00;29;24;
76420;PMS5003;65253;52.354;13.614;2024-03-08T06:08:00;31;26;
76420;PMS5003;65253;52.354;13.614;2024-03-08T06:12:00;31;23;
76420;PMS5003;65253;52.354;13.614;2024-03-08T06:16:00;28;23;
76420;PMS5003;65253;52.354;13.614;2024-03-08T06:20:00;39;27;
76420;PMS5003;65253;52.354;13.614;2024-03-08T06:24:00;34;28;
76420;PMS5003;65253;52.354;13.614;2024-03-08T06:28:00;39;26;
76420;PMS5003;65253;52.354;13.614;2024-03-08T06:32:00;39;28;
76420;PMS5003;65253;52.354;13.614;2024-03-08T06:36:00;37;27;
76420;PMS5003;65253;52.354;13.614;2024-03-08T06:40:00;36;25;
76420;PMS5003;65253;52.354;13.614;2024-03-08T06:44:00;45;29;
76420;PMS5003;65253;52.354;13.614;2024-03-08T06:48:00;37;26;
76420;PMS5003;65253;52.354;13.614;2024-03-08T06:52:00;41;29;
76420;PMS5003;65253;52.354;13.614;2024-03-08T06:56:00;38;28;
76420;PMS5003;65253;52.354;13.614;2024-03-08T07:00:00;39;29;
76420;PMS5003;65253;52.354;13.614;2024-03-08T07:04:00;37;27;
76420;PMS5003;65253;52.354;13.614;2024-03-08T07:08:00;34;23;
76420;PMS5003;65253;52.354;13.614;2024-03-08T07:12:00;37;26;
76420;PMS5003;65253;52.354;13.614;2024-03-08T07:16:00;34;25;
76420;PMS5003;65253;52.354;13.614;2024-03-08T07:20:00;45;30;
76420;PMS5003;65253;52.354;13.614;2024-03-08T07:24:00;37;28;
76420;PMS5003;65253;52.354;13.614;2024-03-08T07:28:00;42;28;
76420;PMS5003;65253;52.354;13.614;2024-03-08T07:32:00;37;30;
76420;PMS5003;65253;52.354;13.614;2024-03-08T07:36:00;29;25;
76420;PMS5003;65253;52.354;13.614;2024-03-08T07:40:00;32;26;
76420;PMS5003;65253;52.354;13.614;2024-03-08T07:44:00;34;25;
76420;PMS5003;65253;52.354;13.614;2024-03-08T07:48:00;39;28;
76420;PMS5003;65253;52.354;13.614;2024-03-08T07:52:00;47;29;
76420;PMS5003;65253;52.354;13.614;2024-03-08T07:56:00;38;29;
76420;PMS5003;65253;52.354;13.614;2024-03-08T08:00:00;39;31;
76420;PMS5003;65253;52.354;13.614;2024-03-08T08:04:00;40;29;
76420;PMS5003;65253;52.354;13.614;2024-03-08T08:08:00;41;32;
76420;PMS5003;65253;52.354;13.614;2024-03-08T08:12:00;38;29;
76420;PMS5003;65253;52.354;13.614;2024-03-08T08:16:00;34;30;
76420;PMS5003;65253;52.354;13.614;2024-03-08T08:20:00;34;25;
76420;PMS5003;65253;52.354;13.614;2024-03-08T08:24:00;36;29;
76420;PMS5003;65253;52.354;13.614;2024-03-08T08:28:00;31;26;
76420;PMS5003;65253;52.354;13.614;2024-03-08T08:32:02;42;29;
76420;PMS5003;65253;52.354;13.614;2024-03-08T08:36:00;48;31;
76420;PMS5003;65253;52.354;13.614;2024-03-08T08:40:00;37;33;
76420;PMS5003;65253;52.354;13.614;2024-03-08T08:44:11;45;32;
76420;PMS5003;65253;52.354;13.614;2024-03-08T08:48:00;45;33;
76420;PMS5003;65253;52.354;13.614;2024-03-08T08:52:11;37;27;
76420;PMS5003;65253;52.354;13.614;2024-03-08T08:56:00;35;22;
76420;PMS5003;65253;52.354;13.614;2024-03-08T09:00:00;43;28;
76420;PMS5003;65253;52.354;13.614;2024-03-08T09:04:00;35;27;
76420;PMS5003;65253;52.354;13.614;2024-03-08T09:08:00;37;29;
76420;PMS5003;65253;52.354;13.614;2024-03-08T09:12:01;42;27;
76420;PMS5003;65253;52.354;13.614;2024-03-08T09:16:01;38;26;
76420;PMS5003;65253;52.354;13.614;2024-03-08T09:20:00;39;29;
76420;PMS5003;65253;52.354;13.614;2024-03-08T09:24:00;28;25;
76420;PMS5003;65253;52.354;13.614;2024-03-08T09:28:00;40;28;
76420;PMS5003;65253;52.354;13.614;2024-03-08T09:32:00;34;27;
76420;PMS5003;65253;52.354;13.614;2024-03-08T09:36:04;30;23;
76420;PMS5003;65253;52.354;13.614;2024-03-08T09:40:01;39;29;
76420;PMS5003;65253;52.354;13.614;2024-03-08T09:44:00;30;23;
76420;PMS5003;65253;52.354;13.614;2024-03-08T09:48:00;32;24;
76420;PMS5003;65253;52.354;13.614;2024-03-08T09:52:00;34;24;
76420;PMS5003;65253;52.354;13.614;2024-03-08T09:56:00;34;22;
76420;PMS5003;65253;52.354;13.614;2024-03-08T10:00:00;37;23;
76420;PMS5003;65253;52.354;13.614;2024-03-08T10:04:01;35;29;
76420;PMS5003;65253;52.354;13.614;2024-03-08T10:08:00;36;25;
76420;PMS5003;65253;52.354;13.614;2024-03-08T10:12:00;23;17;
76420;PMS5003;65253;52.354;13.614;2024-03-08T10:16:00;32;24;
76420;PMS5003;65253;52.354;13.614;2024-03-08T10:20:00;28;20;
76420;PMS5003;65253;52.354;13.614;2024-03-08T10:24:02;28;24;
76420;PMS5003;65253;52.354;13.614;2024-03-08T10:28:03;26;21;
76420;PMS5003;65253;52.354;13.614;2024-03-08T10:32:01;28;22;
76420;PMS5003;65253;52.354;13.614;2024-03-08T10:36:00;34;25;
76420;PMS5003;65253;52.354;13.614;2024-03-08T10:40:02;28;21;
76420;PMS5003;65253;52.354;13.614;2024-03-08T10:44:07;28;19;
76420;PMS5003;65253;52.354;13.614;2024-03-08T10:48:04;24;18;
76420;PMS5003;65253;52.354;13.614;2024-03-08T10:52:01;28;20;
76420;PMS5003;65253;52.354;13.614;2024-03-08T10:56:00;26;20;
76420;PMS5003;65253;52.354;13.614;2024-03-08T11:00:00;18;16;
76420;PMS5003;65253;52.354;13.614;2024-03-08T11:04:00;21;18;
76420;PMS5003;65253;52.354;13.614;2024-03-08T11:08:00;22;17;
76420;PMS5003;65253;52.354;13.614;2024-03-08T11:16:00;21;13;
76420;PMS5003;65253;52.354;13.614;2024-03-08T11:20:00;16;14;
76420;PMS5003;65253;52.354;13.614;2024-03-08T11:24:00;22;16;
76420;PMS5003;65253;52.354;13.614;2024-03-08T11:28:09;21;14;
76420;PMS5003;65253;52.354;13.614;2024-03-08T11:32:03;22;14;
76420;PMS5003;65253;52.354;13.614;2024-03-08T11:36:02;26;19;
76420;PMS5003;65253;52.354;13.614;2024-03-08T11:40:01;21;16;
76420;PMS5003;65253;52.354;13.614;2024-03-08T11:44:02;24;17;
76420;PMS5003;65253;52.354;13.614;2024-03-08T11:48:00;23;16;
76420;PMS5003;65253;52.354;13.614;2024-03-08T11:52:00;20;18;
76420;PMS5003;65253;52.354;13.614;2024-03-08T11:56:05;19;16;
76420;PMS5003;65253;52.354;13.614;2024-03-08T12:00:00;24;18;
76420;PMS5003;65253;52.354;13.614;2024-03-08T12:04:00;29;18;
76420;PMS5003;65253;52.354;13.614;2024-03-08T12:08:00;19;14;
76420;PMS5003;65253;52.354;13.614;2024-03-08T12:12:00;16;15;
76420;PMS5003;65253;52.354;13.614;2024-03-08T12:16:01;21;15;
76420;PMS5003;65253;52.354;13.614;2024-03-08T12:20:10;21;17;
76420;PMS5003;65253;52.354;13.614;2024-03-08T12:24:02;20;14;
76420;PMS5003;65253;52.354;13.614;2024-03-08T12:28:07;25;15;
76420;PMS5003;65253;52.354;13.614;2024-03-08T12:32:01;24;13;
76420;PMS5003;65253;52.354;13.614;2024-03-08T12:36:00;18;16;
76420;PMS5003;65253;52.354;13.614;2024-03-08T12:40:00;23;16;
76420;PMS5003;65253;52.354;13.614;2024-03-08T12:44:00;16;14;
76420;PMS5003;65253;52.354;13.614;2024-03-08T12:48:00;20;13;
76420;PMS5003;65253;52.354;13.614;2024-03-08T12:52:00;20;18;
76420;PMS5003;65253;52.354;13.614;2024-03-08T12:56:00;20;17;
76420;PMS5003;65253;52.354;13.614;2024-03-08T13:00:00;20;15;
76420;PMS5003;65253;52.354;13.614;2024-03-08T13:04:00;16;13;
76420;PMS5003;65253;52.354;13.614;2024-03-08T13:08:00;19;17;
76420;PMS5003;65253;52.354;13.614;2024-03-08T13:12:00;19;14;
76420;PMS5003;65253;52.354;13.614;2024-03-08T13:16:00;17;14;
76420;PMS5003;65253;52.354;13.614;2024-03-08T13:20:00;16;13;
76420;PMS5003;65253;52.354;13.614;2024-03-08T13:24:00;19;12;
76420;PMS5003;65253;52.354;13.614;2024-03-08T13:28:00;37;26;
76420;PMS5003;65253;52.354;13.614;2024-03-08T13:32:00;17;12;
76420;PMS5003;65253;52.354;13.614;2024-03-08T13:36:06;18;15;
76420;PMS5003;65253;52.354;13.614;2024-03-08T13:40:00;21;14;
76420;PMS5003;65253;52.354;13.614;2024-03-08T13:44:00;20;17;
76420;PMS5003;65253;52.354;13.614;2024-03-08T13:48:00;14;13;
76420;PMS5003;65253;52.354;13.614;2024-03-08T13:52:00;16;13;
76420;PMS5003;65253;52.354;13.614;2024-03-08T13:56:00;17;15;
76420;PMS5003;65253;52.354;13.614;2024-03-08T14:00:00;18;14;
76420;PMS5003;65253;52.354;13.614;2024-03-08T14:04:00;22;16;
76420;PMS5003;65253;52.354;13.614;2024-03-08T14:08:00;20;15;
76420;PMS5003;65253;52.354;13.614;2024-03-08T14:12:00;21;13;
76420;PMS5003;65253;52.354;13.614;2024-03-08T14:16:00;14;10;
76420;PMS5003;65253;52.354;13.614;2024-03-08T14:20:00;18;12;
76420;PMS5003;65253;52.354;13.614;2024-03-08T14:24:00;16;11;
76420;PMS5003;65253;52.354;13.614;2024-03-08T14:28:00;16;13;
76420;PMS5003;65253;52.354;13.614;2024-03-08T14:32:00;15;11;
76420;PMS5003;65253;52.354;13.614;2024-03-08T14:36:00;20;11;
76420;PMS5003;65253;52.354;13.614;2024-03-08T14:40:00;14;10;
76420;PMS5003;65253;52.354;13.614;2024-03-08T14:44:00;18;13;
76420;PMS5003;65253;52.354;13.614;2024-03-08T14:48:00;14;12;
76420;PMS5003;65253;52.354;13.614;2024-03-08T14:52:00;21;15;
76420;PMS5003;65253;52.354;13.614;2024-03-08T14:56:00;16;12;
76420;PMS5003;65253;52.354;13.614;2024-03-08T15:00:00;14;9;
76420;PMS5003;65253;52.354;13.614;2024-03-08T15:04:00;13;11;
76420;PMS5003;65253;52.354;13.614;2024-03-08T15:08:00;16;14;
76420;PMS5003;65253;52.354;13.614;2024-03-08T15:12:00;15;11;
76420;PMS5003;65253;52.354;13.614;2024-03-08T15:16:00;13;13;
76420;PMS5003;65253;52.354;13.614;2024-03-08T15:20:00;17;14;
76420;PMS5003;65253;52.354;13.614;2024-03-08T15:24:00;16;13;
76420;PMS5003;65253;52.354;13.614;2024-03-08T15:28:00;16;13;
76420;PMS5003;65253;52.354;13.614;2024-03-08T15:32:00;16;15;
76420;PMS5003;65253;52.354;13.614;2024-03-08T15:36:01;19;15;
76420;PMS5003;65253;52.354;13.614;2024-03-08T15:40:00;18;11;
76420;PMS5003;65253;52.354;13.614;2024-03-08T15:44:01;18;13;
76420;PMS5003;65253;52.354;13.614;2024-03-08T15:48:00;16;12;
76420;PMS5003;65253;52.354;13.614;2024-03-08T15:52:00;16;11;
76420;PMS5003;65253;52.354;13.614;2024-03-08T15:56:01;21;15;
76420;PMS5003;65253;52.354;13.614;2024-03-08T16:00:00;18;15;
76420;PMS5003;65253;52.354;13.614;2024-03-08T16:04:00;20;13;
76420;PMS5003;65253;52.354;13.614;2024-03-08T16:08:00;14;12;
76420;PMS5003;65253;52.354;13.614;2024-03-08T16:12:01;18;12;
76420;PMS5003;65253;52.354;13.614;2024-03-08T16:16:00;20;17;
76420;PMS5003;65253;52.354;13.614;2024-03-08T16:20:00;18;13;
76420;PMS5003;65253;52.354;13.614;2024-03-08T16:24:00;20;14;
76420;PMS5003;65253;52.354;13.614;2024-03-08T16:28:00;18;16;
76420;PMS5003;65253;52.354;13.614;2024-03-08T16:32:00;18;14;
76420;PMS5003;65253;52.354;13.614;2024-03-08T16:36:00;20;17;
76420;PMS5003;65253;52.354;13.614;2024-03-08T16:40:00;21;17;
76420;PMS5003;65253;52.354;13.614;2024-03-08T16:44:04;17;13;
76420;PMS5003;65253;52.354;13.614;2024-03-08T16:48:01;21;16;
76420;PMS5003;65253;52.354;13.614;2024-03-08T16:52:00;19;14;
76420;PMS5003;65253;52.354;13.614;2024-03-08T16:56:00;25;16;
76420;PMS5003;65253;52.354;13.614;2024-03-08T17:00:00;33;22;
76420;PMS5003;65253;52.354;13.614;2024-03-08T17:04:02;36;29;
76420;PMS5003;65253;52.354;13.614;2024-03-08T17:08:01;53;43;
76420;PMS5003;65253;52.354;13.614;2024-03-08T17:12:01;62;46;
76420;PMS5003;65253;52.354;13.614;2024-03-08T17:16:00;36;25;
76420;PMS5003;65253;52.354;13.614;2024-03-08T17:20:00;26;21;
76420;PMS5003;65253;52.354;13.614;2024-03-08T17:24:00;23;17;
76420;PMS5003;65253;52.354;13.614;2024-03-08T17:28:01;22;18;
76420;PMS5003;65253;52.354;13.614;2024-03-08T17:32:00;16;16;
76420;PMS5003;65253;52.354;13.614;2024-03-08T17:36:00;24;17;
76420;PMS5003;65253;52.354;13.614;2024-03-08T17:40:00;29;15;
76420;PMS5003;65253;52.354;13.614;2024-03-08T17:44:00;25;21;
76420;PMS5003;65253;52.354;13.614;2024-03-08T17:48:00;24;17;
76420;PMS5003;65253;52.354;13.614;2024-03-08T17:52:00;20;16;
76420;PMS5003;65253;52.354;13.614;2024-03-08T17:56:00;25;18;
76420;PMS5003;65253;52.354;13.614;2024-03-08T18:00:00;23;20;
76420;PMS5003;65253;52.354;13.614;2024-03-08T18:04:00;24;22;
76420;PMS5003;65253;52.354;13.614;2024-03-08T18:08:00;24;21;
76420;PMS5003;65253;52.354;13.614;2024-03-08T18:12:00;28;18;
76420;PMS5003;65253;52.354;13.614;2024-03-08T18:16:00;21;18;
76420;PMS5003;65253;52.354;13.614;2024-03-08T18:20:00;31;22;
76420;PMS5003;65253;52.354;13.614;2024-03-08T18:24:00;26;18;
76420;PMS5003;65253;52.354;13.614;2024-03-08T18:28:01;22;20;
76420;PMS5003;65253;52.354;13.614;2024-03-08T18:32:00;26;22;
76420;PMS5003;65253;52.354;13.614;2024-03-08T18:36:00;35;24;
76420;PMS5003;65253;52.354;13.614;2024-03-08T18:40:00;24;19;
76420;PMS5003;65253;52.354;13.614;2024-03-08T18:44:00;32;21;
76420;PMS5003;65253;52.354;13.614;2024-03-08T18:48:00;31;24;
76420;PMS5003;65253;52.354;13.614;2024-03-08T18:52:00;30;23;
76420;PMS5003;65253;52.354;13.614;2024-03-08T18:56:00;22;18;
76420;PMS5003;65253;52.354;13.614;2024-03-08T19:00:00;34;20;
76420;PMS5003;65253;52.354;13.614;2024-03-08T19:04:00;27;20;
76420;PMS5003;65253;52.354;13.614;2024-03-08T19:08:01;32;24;
76420;PMS5003;65253;52.354;13.614;2024-03-08T19:12:00;34;23;
76420;PMS5003;65253;52.354;13.614;2024-03-08T19:16:00;26;20;
76420;PMS5003;65253;52.354;13.614;2024-03-08T19:20:00;29;23;
76420;PMS5003;65253;52.354;13.614;2024-03-08T19:24:00;29;21;
76420;PMS5003;65253;52.354;13.614;2024-03-08T19:28:01;23;16;
76420;PMS5003;65253;52.354;13.614;2024-03-08T19:32:00;25;20;
76420;PMS5003;65253;52.354;13.614;2024-03-08T19:36:00;26;22;
76420;PMS5003;65253;52.354;13.614;2024-03-08T19:40:00;22;18;
76420;PMS5003;65253;52.354;13.614;2024-03-08T19:44:00;26;19;
76420;PMS5003;65253;52.354;13.614;2024-03-08T19:48:01;31;24;
76420;PMS5003;65253;52.354;13.614;2024-03-08T19:52:00;31;20;
76420;PMS5003;65253;52.354;13.614;2024-03-08T19:56:00;28;23;
76420;PMS5003;65253;52.354;13.614;2024-03-08T20:00:00;24;19;
76420;PMS5003;65253;52.354;13.614;2024-03-08T20:04:00;22;18;
76420;PMS5003;65253;52.354;13.614;2024-03-08T20:08:00;25;20;
76420;PMS5003;65253;52.354;13.614;2024-03-08T20:12:00;27;21;
76420;PMS5003;65253;52.354;13.614;2024-03-08T20:16:00;25;21;
76420;PMS5003;65253;52.354;13.614;2024-03-08T20:20:01;30;20;
76420;PMS5003;65253;52.354;13.614;2024-03-08T20:24:00;31;24;
76420;PMS5003;65253;52.354;13.614;2024-03-08T20:28:00;29;19;
76420;PMS5003;65253;52.354;13.614;2024-03-08T20:32:00;26;20;
76420;PMS5003;65253;52.354;13.614;2024-03-08T20:36:00;32;22;
76420;PMS5003;65253;52.354;13.614;2024-03-08T20:40:00;31;22;
76420;PMS5003;65253;52.354;13.614;2024-03-08T20:44:00;36;25;
76420;PMS5003;65253;52.354;13.614;2024-03-08T20:48:00;39;25;
76420;PMS5003;65253;52.354;13.614;2024-03-08T20:52:00;27;23;
76420;PMS5003;65253;52.354;13.614;2024-03-08T20:56:00;32;28;
76420;PMS5003;65253;52.354;13.614;2024-03-08T21:00:05;32;23;
76420;PMS5003;65253;52.354;13.614;2024-03-08T21:04:00;29;21;
76420;PMS5003;65253;52.354;13.614;2024-03-08T21:08:00;29;23;
76420;PMS5003;65253;52.354;13.614;2024-03-08T21:12:00;30;22;
76420;PMS5003;65253;52.354;13.614;2024-03-08T21:16:00;33;23;
76420;PMS5003;65253;52.354;13.614;2024-03-08T21:20:00;34;19;
76420;PMS5003;65253;52.354;13.614;2024-03-08T21:24:00;34;28;
76420;PMS5003;65253;52.354;13.614;2024-03-08T21:28:00;39;27;
76420;PMS5003;65253;52.354;13.614;2024-03-08T21:32:00;39;28;
76420;PMS5003;65253;52.354;13.614;2024-03-08T21:36:01;31;24;
76420;PMS5003;65253;52.354;13.614;2024-03-08T21:40:00;27;22;
76420;PMS5003;65253;52.354;13.614;2024-03-08T21:44:00;28;18;
76420;PMS5003;65253;52.354;13.614;2024-03-08T21:48:03;40;26;
76420;PMS5003;65253;52.354;13.614;2024-03-08T21:52:00;34;24;
76420;PMS5003;65253;52.354;13.614;2024-03-08T21:56:00;26;21;
76420;PMS5003;65253;52.354;13.614;2024-03-08T22:00:00;29;22;
76420;PMS5003;65253;52.354;13.614;2024-03-08T22:04:00;26;20;
76420;PMS5003;65253;52.354;13.614;2024-03-08T22:08:00;30;21;
76420;PMS5003;65253;52.354;13.614;2024-03-08T22:12:00;35;27;
76420;PMS5003;65253;52.354;13.614;2024-03-08T22:16:00;29;22;
76420;PMS5003;65253;52.354;13.614;2024-03-08T22:20:01;33;25;
76420;PMS5003;65253;52.354;13.614;2024-03-08T22:24:00;34;22;
76420;PMS5003;65253;52.354;13.614;2024-03-08T22:28:00;35;25;
76420;PMS5003;65253;52.354;13.614;2024-03-08T22:32:00;37;26;
76420;PMS5003;65253;52.354;13.614;2024-03-08T22:36:00;36;29;
76420;PMS5003;65253;52.354;13.614;2024-03-08T22:40:03;34;24;
76420;PMS5003;65253;52.354;13.614;2024-03-08T22:44:00;34;24;
76420;PMS5003;65253;52.354;13.614;2024-03-08T22:48:00;33;28;
76420;PMS5003;65253;52.354;13.614;2024-03-08T22:52:00;35;23;
76420;PMS5003;65253;52.354;13.614;2024-03-08T22:56:00;30;26;
76420;PMS5003;65253;52.354;13.614;2024-03-08T23:00:00;35;25;
76420;PMS5003;65253;52.354;13.614;2024-03-08T23:04:00;33;26;
76420;PMS5003;65253;52.354;13.614;2024-03-08T23:08:02;30;26;
76420;PMS5003;65253;52.354;13.614;2024-03-08T23:12:00;35;28;
76420;PMS5003;65253;52.354;13.614;2024-03-08T23:16:00;35;26;
76420;PMS5003;65253;52.354;13.614;2024-03-08T23:20:00;46;32;
76420;PMS5003;65253;52.354;13.614;2024-03-08T23:24:00;42;25;
76420;PMS5003;65253;52.354;13.614;2024-03-08T23:28:00;40;25;
76420;PMS5003;65253;52.354;13.614;2024-03-08T23:32:00;34;26;
76420;PMS5003;65253;52.354;13.614;2024-03-08T23:36:00;44;27;
76420;PMS5003;65253;52.354;13.614;2024-03-08T23:40:00;41;26;
76420;PMS5003;65253;52.354;13.614;2024-03-08T23:44:00;36;30;
76420;PMS5003;65253;52.354;13.614;2024-03-08T23:48:01;29;23;
76420;PMS5003;65253;52.354;13.614;2024-03-08T23:52:00;37;26;
76420;PMS5003;65253;52.354;13.614;2024-03-08T23:56:00;37;26;
